createdAt,value
2022-08-19T00:00:32.617Z,100066.78
2022-08-19T00:02:59.495Z,100066.22
2022-08-19T00:05:26.240Z,100052.62
2022-08-19T00:07:53.058Z,100065.38
2022-08-19T00:10:21.218Z,100061.81
2022-08-19T00:12:48.465Z,100059.38
2022-08-19T00:15:18.178Z,100059.62
2022-08-19T00:17:46.441Z,100055.78
2022-08-19T00:20:18.054Z,100062.06
2022-08-19T00:22:46.305Z,100072.06
2022-08-19T00:25:13.303Z,100059.03
2022-08-19T00:27:42.728Z,100054.97
2022-08-19T00:30:11.405Z,100054.66
2022-08-19T00:32:38.354Z,100056.28
2022-08-19T00:35:06.646Z,100065.50
2022-08-19T00:37:35.566Z,100066.56
2022-08-19T00:40:05.244Z,100058.13
2022-08-19T00:42:32.132Z,100063.81
2022-08-19T00:44:59.176Z,100065.41
2022-08-19T00:47:26.059Z,100051.25
2022-08-19T00:49:57.003Z,100052.03
2022-08-19T00:52:29.981Z,100070.22
2022-08-19T00:54:57.881Z,100074.56
2022-08-19T00:57:30.660Z,100062.53
2022-08-19T01:00:02.512Z,100075.56
2022-08-19T01:02:32.192Z,100063.56
2022-08-19T01:05:01.381Z,100082.00
2022-08-19T01:07:28.230Z,100077.63
2022-08-19T01:10:03.255Z,100085.25
2022-08-19T01:12:31.176Z,100089.31
2022-08-19T01:14:58.704Z,100083.56
2022-08-19T01:17:26.212Z,100084.59
2022-08-19T01:19:53.081Z,100077.53
2022-08-19T01:22:28.691Z,100072.38
2022-08-19T01:24:57.927Z,100082.69
2022-08-19T01:27:26.277Z,100086.19
2022-08-19T01:29:53.057Z,100083.19
2022-08-19T01:32:32.303Z,100072.53
2022-08-19T01:35:03.029Z,100081.25
2022-08-19T01:37:31.574Z,100084.16
2022-08-19T01:39:58.776Z,100082.22
2022-08-19T01:42:30.127Z,100074.37
2022-08-19T01:44:58.208Z,100066.50
2022-08-19T01:47:25.369Z,100070.78
2022-08-19T01:49:52.080Z,100065.62
2022-08-19T01:52:19.056Z,100061.78
2022-08-19T01:54:45.715Z,100047.06
2022-08-19T01:57:15.160Z,100037.81
2022-08-19T01:59:43.827Z,100050.00
2022-08-19T02:02:11.426Z,100060.31
2022-08-19T02:04:39.484Z,100056.47
2022-08-19T02:07:07.295Z,100050.50
2022-08-19T02:09:35.653Z,100044.72
2022-08-19T02:12:02.778Z,100061.59
2022-08-19T02:14:29.425Z,100054.78
2022-08-19T02:16:56.174Z,100058.31
2022-08-19T02:19:23.391Z,100054.22
2022-08-19T02:21:50.092Z,100062.28
2022-08-19T02:24:16.966Z,100050.78
2022-08-19T02:26:43.952Z,100073.06
2022-08-19T02:29:10.683Z,100066.25
2022-08-19T02:31:37.388Z,100059.16
2022-08-19T02:34:04.493Z,100069.16
2022-08-19T02:36:31.623Z,100063.16
2022-08-19T02:38:58.543Z,100067.13
2022-08-19T02:41:28.703Z,100066.31
2022-08-19T02:44:26.695Z,100071.72
2022-08-19T02:46:48.210Z,100080.09
2022-08-19T02:49:17.443Z,100074.34
2022-08-19T02:51:46.775Z,100065.69
2022-08-19T02:54:15.211Z,100069.69
2022-08-19T02:56:43.598Z,100066.69
2022-08-19T02:59:12.624Z,100064.78
2022-08-19T03:01:42.203Z,100062.94
2022-08-19T03:04:12.352Z,100085.63
2022-08-19T03:06:41.854Z,100082.91
2022-08-19T03:09:09.303Z,100071.44
2022-08-19T03:11:36.259Z,100071.44
2022-08-19T03:14:04.635Z,100089.38
2022-08-19T03:16:35.425Z,100078.25
2022-08-19T03:19:03.880Z,100074.50
2022-08-19T03:21:33.895Z,100087.81
2022-08-19T03:24:05.082Z,100086.50
2022-08-19T03:26:32.177Z,100097.87
2022-08-19T03:29:02.098Z,100092.22
2022-08-19T03:31:44.351Z,100089.53
2022-08-19T03:34:22.256Z,100094.50
2022-08-19T03:36:49.635Z,100101.03
2022-08-19T03:39:16.822Z,100096.22
2022-08-19T03:41:48.275Z,100101.13
2022-08-19T03:44:19.261Z,100105.44
2022-08-19T03:46:56.320Z,100105.53
2022-08-19T03:49:28.441Z,100111.50
2022-08-19T03:51:57.860Z,100109.88
2022-08-19T03:54:26.427Z,100116.41
2022-08-19T03:56:55.758Z,100118.94
2022-08-19T03:59:29.422Z,100124.81
2022-08-19T04:01:58.493Z,100128.97
2022-08-19T04:04:28.995Z,100120.31
2022-08-19T04:06:56.789Z,100105.09
2022-08-19T04:09:23.870Z,100119.78
2022-08-19T04:11:57.065Z,100108.84
2022-08-19T04:14:31.361Z,100108.78
2022-08-19T04:17:02.605Z,100108.16
2022-08-19T04:19:31.495Z,100112.41
2022-08-19T04:21:59.527Z,100120.34
2022-08-19T04:24:26.412Z,100115.94
2022-08-19T04:26:53.362Z,100108.25
2022-08-19T04:29:25.618Z,100113.84
2022-08-19T04:31:54.668Z,100114.56
2022-08-19T04:34:23.558Z,100121.03
2022-08-19T04:36:54.587Z,100129.41
2022-08-19T04:39:46.263Z,100129.69
2022-08-19T04:42:32.466Z,100139.44
2022-08-19T04:45:00.008Z,100146.97
2022-08-19T04:47:51.435Z,100139.63
2022-08-19T04:50:14.782Z,100154.78
2022-08-19T04:52:44.566Z,100153.41
2022-08-19T04:55:12.357Z,100148.50
2022-08-19T04:57:41.522Z,100149.00
2022-08-19T05:00:09.982Z,100147.34
2022-08-19T05:02:38.705Z,100155.59
2022-08-19T05:05:07.418Z,100152.91
2022-08-19T05:07:34.629Z,100138.31
2022-08-19T05:10:01.502Z,100154.03
2022-08-19T05:12:29.781Z,100144.84
2022-08-19T05:14:58.466Z,100137.00
2022-08-19T05:17:28.789Z,100156.28
2022-08-19T05:20:15.988Z,100152.50
2022-08-19T05:22:44.962Z,100155.78
2022-08-19T05:25:15.802Z,100160.13
2022-08-19T05:27:43.138Z,100166.94
2022-08-19T05:30:11.621Z,100154.78
2022-08-19T05:32:39.428Z,100165.13
2022-08-19T05:35:06.991Z,100161.06
2022-08-19T05:37:33.767Z,100157.53
2022-08-19T05:40:02.412Z,100170.66
2022-08-19T05:42:29.384Z,100170.97
2022-08-19T05:44:56.979Z,100164.22
2022-08-19T05:47:24.152Z,100170.75
2022-08-19T05:49:52.286Z,100165.84
2022-08-19T05:52:25.471Z,100164.03
2022-08-19T05:54:56.279Z,100166.22
2022-08-19T05:57:24.290Z,100174.38
2022-08-19T05:59:57.681Z,100166.59
2022-08-19T06:02:31.861Z,100175.06
2022-08-19T06:04:59.401Z,100163.72
2022-08-19T06:07:26.320Z,100157.78
2022-08-19T06:09:59.626Z,100161.84
2022-08-19T06:12:32.365Z,100150.47
2022-08-19T06:15:01.048Z,100163.28
2022-08-19T06:17:31.298Z,100156.00
2022-08-19T06:19:59.464Z,100156.31
2022-08-19T06:22:27.359Z,100165.81
2022-08-19T06:24:55.512Z,100159.31
2022-08-19T06:27:22.809Z,100145.16
2022-08-19T06:29:50.031Z,100154.44
2022-08-19T06:32:19.389Z,100151.81
2022-08-19T06:34:46.492Z,100159.44
2022-08-19T06:37:13.807Z,100155.97
2022-08-19T06:39:44.031Z,100156.28
2022-08-19T06:42:14.204Z,100141.84
2022-08-19T06:44:43.802Z,100152.75
2022-08-19T06:47:23.870Z,100158.22
2022-08-19T06:50:05.370Z,100160.69
2022-08-19T06:52:34.999Z,100157.47
2022-08-19T06:55:06.274Z,100152.28
2022-08-19T06:57:34.822Z,100167.31
2022-08-19T07:00:01.956Z,100161.34
2022-08-19T07:02:29.232Z,100171.16
2022-08-19T07:04:58.865Z,100166.84
2022-08-19T07:07:25.880Z,100170.66
2022-08-19T07:09:58.485Z,100179.91
2022-08-19T07:12:33.942Z,100179.13
2022-08-19T07:15:06.029Z,100173.69
2022-08-19T07:17:34.609Z,100175.38
2022-08-19T07:20:07.009Z,100171.88
2022-08-19T07:22:37.483Z,100156.13
2022-08-19T07:25:04.797Z,100155.06
2022-08-19T07:27:33.646Z,100174.69
2022-08-19T07:30:01.191Z,100162.47
2022-08-19T07:32:28.147Z,100167.62
2022-08-19T07:34:56.682Z,100157.31
2022-08-19T07:37:33.053Z,100153.25
2022-08-19T07:40:02.055Z,100155.19
2022-08-19T07:42:30.928Z,100159.25
2022-08-19T07:44:59.376Z,100157.91
2022-08-19T07:47:47.492Z,100166.09
2022-08-19T07:50:13.368Z,100162.84
2022-08-19T07:52:40.997Z,100154.16
2022-08-19T07:55:11.443Z,100162.31
2022-08-19T07:57:58.227Z,100178.38
2022-08-19T08:00:25.041Z,100172.94
2022-08-19T08:02:55.850Z,100158.00
2022-08-19T08:05:44.248Z,100166.44
2022-08-19T08:08:32.109Z,100183.00
2022-08-19T08:11:00.324Z,100183.00
2022-08-19T08:13:28.111Z,100187.91
2022-08-19T08:15:56.712Z,100179.75
2022-08-19T08:18:27.956Z,100164.25
2022-08-19T08:20:58.427Z,100171.34
2022-08-19T08:23:26.677Z,100174.31
2022-08-19T08:25:56.623Z,100175.97
2022-08-19T08:28:29.400Z,100181.69
2022-08-19T08:30:58.067Z,100180.88
2022-08-19T08:33:34.841Z,100171.06
2022-08-19T08:36:05.977Z,100187.41
2022-08-19T08:38:39.083Z,100191.72
2022-08-19T08:41:38.657Z,100173.25
2022-08-19T08:44:05.772Z,100192.81
2022-08-19T08:46:52.756Z,100192.81
2022-08-19T08:49:46.289Z,100194.19
2022-08-19T08:52:36.274Z,100194.72
2022-08-19T08:55:14.881Z,100178.66
2022-08-19T08:57:55.784Z,100194.44
2022-08-19T09:00:28.622Z,100188.44
2022-08-19T09:02:56.885Z,100184.09
2022-08-19T09:05:37.684Z,100179.47
2022-08-19T09:08:29.984Z,100178.34
2022-08-19T09:10:58.650Z,100180.25
2022-08-19T09:13:39.336Z,100172.87
2022-08-19T09:16:22.030Z,100175.34
2022-08-19T09:18:59.891Z,100181.31
2022-08-19T09:21:33.041Z,100185.69
2022-08-19T09:24:00.146Z,100182.13
2022-08-19T09:26:47.658Z,100192.97
2022-08-19T09:29:14.955Z,100191.03
2022-08-19T09:31:42.109Z,100195.03
2022-08-19T09:34:21.758Z,100193.91
2022-08-19T09:36:54.473Z,100197.19
2022-08-19T09:39:22.645Z,100206.41
2022-08-19T09:41:50.988Z,100205.28
2022-08-19T09:44:19.135Z,100211.53
2022-08-19T09:46:48.141Z,100209.03
2022-08-19T09:49:18.305Z,100202.22
2022-08-19T09:51:50.330Z,100206.81
2022-08-19T09:54:23.505Z,100191.81
2022-08-19T09:56:54.028Z,100208.75
2022-08-19T09:59:21.403Z,100210.94
2022-08-19T10:01:48.513Z,100200.59
2022-08-19T10:04:19.918Z,100210.84
2022-08-19T10:06:48.619Z,100211.94
2022-08-19T10:09:26.205Z,100210.78
2022-08-19T10:12:03.580Z,100205.34
2022-08-19T10:14:31.331Z,100231.97
2022-08-19T10:16:59.373Z,100217.47
2022-08-19T10:19:27.309Z,100219.13
2022-08-19T10:21:55.864Z,100209.94
2022-08-19T10:24:28.795Z,100223.06
2022-08-19T10:26:58.983Z,100215.16
2022-08-19T10:29:32.655Z,100218.66
2022-08-19T10:32:03.338Z,100214.03
2022-08-19T10:34:31.570Z,100223.75
2022-08-19T10:37:00.966Z,100217.19
2022-08-19T10:39:31.274Z,100221.59
2022-08-19T10:41:58.908Z,100223.56
2022-08-19T10:44:32.234Z,100224.88
2022-08-19T10:47:00.206Z,100218.38
2022-08-19T10:49:28.224Z,100219.34
2022-08-19T10:52:20.699Z,100219.06
2022-08-19T10:55:08.879Z,100233.19
2022-08-19T10:57:59.403Z,100231.50
2022-08-19T11:00:24.991Z,100235.25
2022-08-19T11:02:52.583Z,100233.31
2022-08-19T11:05:19.835Z,100242.25
2022-08-19T11:07:46.956Z,100243.28
2022-08-19T11:10:20.910Z,100240.03
2022-08-19T11:12:49.181Z,100246.56
2022-08-19T11:15:16.573Z,100245.81
2022-08-19T11:17:44.801Z,100229.00
2022-08-19T11:20:13.987Z,100231.34
2022-08-19T11:22:42.190Z,100232.06
2022-08-19T11:25:10.716Z,100253.84
2022-08-19T11:27:45.768Z,100243.41
2022-08-19T11:30:14.751Z,100245.84
2022-08-19T11:32:45.896Z,100242.53
2022-08-19T11:35:17.192Z,100242.81
2022-08-19T11:37:44.293Z,100238.44
2022-08-19T11:40:11.935Z,100223.41
2022-08-19T11:42:58.977Z,100238.94
2022-08-19T11:45:29.054Z,100223.97
2022-08-19T11:47:56.556Z,100242.78
2022-08-19T11:50:24.562Z,100237.34
2022-08-19T11:52:55.694Z,100201.22
2022-08-19T11:55:23.758Z,100240.44
2022-08-19T11:57:50.566Z,100239.59
2022-08-19T12:00:17.559Z,100233.06
2022-08-19T12:02:44.565Z,100240.44
2022-08-19T12:05:12.830Z,100250.31
2022-08-19T12:07:42.399Z,100247.06
2022-08-19T12:10:10.709Z,100248.50
2022-08-19T12:12:43.295Z,100255.53
2022-08-19T12:15:11.994Z,100246.50
2022-08-19T12:17:39.168Z,100255.53
2022-08-19T12:20:08.573Z,100256.63
2022-08-19T12:22:36.348Z,100258.56
2022-08-19T12:25:04.724Z,100260.25
2022-08-19T12:27:32.249Z,100255.13
2022-08-19T12:30:18.882Z,100259.59
2022-08-19T12:32:45.523Z,100256.97
2022-08-19T12:35:12.808Z,100255.44
2022-08-19T12:37:45.347Z,100256.84
2022-08-19T12:40:23.494Z,100255.53
2022-08-19T12:42:54.930Z,100247.94
2022-08-19T12:45:22.592Z,100265.16
2022-08-19T12:47:50.469Z,100258.09
2022-08-19T12:50:22.468Z,100260.59
2022-08-19T12:52:50.069Z,100256.78
2022-08-19T12:55:16.951Z,100265.81
2022-08-19T12:57:44.022Z,100274.81
2022-08-19T13:00:19.528Z,100275.91
2022-08-19T13:02:53.426Z,100281.91
2022-08-19T13:05:23.814Z,100282.75
2022-08-19T13:07:53.096Z,100282.50
2022-08-19T13:10:21.264Z,100272.97
2022-08-19T13:12:50.423Z,100281.19
2022-08-19T13:15:23.819Z,100282.81
2022-08-19T13:17:52.796Z,100276.56
2022-08-19T13:20:21.544Z,100265.72
2022-08-19T13:22:49.277Z,100279.06
2022-08-19T13:25:18.581Z,100289.66
2022-08-19T13:27:46.325Z,100281.22
2022-08-19T13:30:34.371Z,100261.37
2022-08-19T13:33:15.188Z,100277.97
2022-08-19T13:35:57.956Z,100267.91
2022-08-19T13:38:25.137Z,100269.00
2022-08-19T13:40:53.568Z,100279.38
2022-08-19T13:43:23.825Z,100280.97
2022-08-19T13:45:56.303Z,100288.63
2022-08-19T13:48:24.608Z,100288.31
2022-08-19T13:50:51.878Z,100283.16
2022-08-19T13:53:19.193Z,100278.53
2022-08-19T13:55:46.006Z,100282.34
2022-08-19T13:58:13.373Z,100291.87
2022-08-19T14:00:43.829Z,100292.94
2022-08-19T14:03:11.010Z,100271.75
2022-08-19T14:05:38.212Z,100274.16
2022-08-19T14:08:04.899Z,100276.06
2022-08-19T14:10:32.942Z,100286.97
2022-08-19T14:13:03.276Z,100290.22
2022-08-19T14:15:31.251Z,100281.25
2022-08-19T14:17:58.630Z,100276.62
2022-08-19T14:20:26.287Z,100277.97
2022-08-19T14:22:53.891Z,100280.41
2022-08-19T14:25:27.172Z,100278.81
2022-08-19T14:27:54.365Z,100288.34
2022-08-19T14:30:28.598Z,100264.09
2022-08-19T14:32:57.311Z,100271.19
2022-08-19T14:35:24.887Z,100281.53
2022-08-19T14:37:56.040Z,100277.16
2022-08-19T14:40:29.073Z,100264.63
2022-08-19T14:43:00.419Z,100267.09
2022-08-19T14:45:29.256Z,100268.72
2022-08-19T14:47:56.652Z,100264.09
2022-08-19T14:50:23.720Z,100260.28
2022-08-19T14:52:50.628Z,100254.56
2022-08-19T14:55:19.195Z,100250.47
2022-08-19T14:57:46.173Z,100248.03
2022-08-19T15:00:14.339Z,100271.69
2022-08-19T15:02:42.740Z,100267.63
2022-08-19T15:05:10.016Z,100269.50
2022-08-19T15:07:37.847Z,100255.09
2022-08-19T15:10:10.564Z,100266.25
2022-08-19T15:12:40.769Z,100264.88
2022-08-19T15:15:13.670Z,100268.97
2022-08-19T15:17:54.523Z,100256.41
2022-08-19T15:20:23.688Z,100278.97
2022-08-19T15:22:50.485Z,100273.25
2022-08-19T15:25:19.581Z,100266.72
2022-08-19T15:27:46.897Z,100260.22
2022-08-19T15:30:23.551Z,100265.16
2022-08-19T15:32:51.125Z,100274.66
2022-08-19T15:35:19.399Z,100283.94
2022-08-19T15:37:49.825Z,100268.97
2022-08-19T15:40:17.549Z,100284.47
2022-08-19T15:42:44.681Z,100280.87
2022-08-19T15:45:13.484Z,100271.09
2022-08-19T15:47:40.935Z,100290.38
2022-08-19T15:50:12.854Z,100281.13
2022-08-19T15:52:49.562Z,100280.00
2022-08-19T15:55:33.426Z,100296.62
2022-08-19T15:58:29.920Z,100298.78
2022-08-19T16:01:20.494Z,100308.78
2022-08-19T16:04:14.376Z,100307.41
2022-08-19T16:06:51.926Z,100297.06
2022-08-19T16:09:27.067Z,100312.25
2022-08-19T16:12:02.713Z,100309.00
2022-08-19T16:14:32.240Z,100314.97
2022-08-19T16:16:59.204Z,100325.81
2022-08-19T16:19:25.967Z,100324.72
2022-08-19T16:21:55.359Z,100315.44
2022-08-19T16:24:25.091Z,100321.66
2022-08-19T16:26:51.839Z,100315.97
2022-08-19T16:29:22.140Z,100308.88
2022-08-19T16:32:07.455Z,100308.59
2022-08-19T16:34:34.571Z,100321.59
2022-08-19T16:37:01.861Z,100321.50
2022-08-19T16:39:29.071Z,100328.31
2022-08-19T16:41:56.093Z,100324.78
2022-08-19T16:44:22.860Z,100322.34
2022-08-19T16:46:58.642Z,100317.44
2022-08-19T16:49:53.682Z,100333.72
2022-08-19T16:52:16.106Z,100329.63
2022-08-19T16:54:43.895Z,100325.53
2022-08-19T16:57:12.520Z,100333.94
2022-08-19T16:59:48.653Z,100338.00
2022-08-19T17:02:18.319Z,100339.06
2022-08-19T17:04:57.681Z,100346.69
2022-08-19T17:07:29.595Z,100334.38
2022-08-19T17:10:00.148Z,100348.78
2022-08-19T17:12:30.525Z,100345.75
2022-08-19T17:15:00.893Z,100344.91
2022-08-19T17:17:29.281Z,100338.06
2022-08-19T17:19:57.115Z,100335.66
2022-08-19T17:22:24.001Z,100331.78
2022-08-19T17:24:51.010Z,100343.72
2022-08-19T17:27:19.773Z,100346.69
2022-08-19T17:29:47.221Z,100335.53
2022-08-19T17:32:15.346Z,100351.84
2022-08-19T17:34:42.068Z,100348.56
2022-08-19T17:37:08.824Z,100347.19
2022-08-19T17:39:39.025Z,100344.19
2022-08-19T17:42:08.040Z,100346.03
2022-08-19T17:44:36.687Z,100352.25
2022-08-19T17:47:04.657Z,100362.84
2022-08-19T17:49:32.698Z,100350.81
2022-08-19T17:52:00.618Z,100363.31
2022-08-19T17:54:31.807Z,100362.19
2022-08-19T17:57:01.486Z,100369.78
2022-08-19T17:59:30.249Z,100369.69
2022-08-19T18:01:57.883Z,100366.69
2022-08-19T18:04:26.360Z,100375.56
2022-08-19T18:06:55.564Z,100373.38
2022-08-19T18:09:42.698Z,100376.34
2022-08-19T18:12:11.728Z,100375.75
2022-08-19T18:14:39.447Z,100364.22
2022-08-19T18:17:09.521Z,100361.59
2022-08-19T18:19:43.265Z,100358.25
2022-08-19T18:22:24.496Z,100362.03
2022-08-19T18:24:51.656Z,100362.53
2022-08-19T18:27:18.808Z,100363.03
2022-08-19T18:29:45.923Z,100365.19
2022-08-19T18:32:13.407Z,100366.25
2022-08-19T18:34:44.240Z,100361.59
2022-08-19T18:37:12.019Z,100365.97
2022-08-19T18:39:58.369Z,100359.13
2022-08-19T18:42:44.213Z,100365.87
2022-08-19T18:45:30.204Z,100360.97
2022-08-19T18:48:26.366Z,100343.56
2022-08-19T18:50:59.823Z,100344.81
2022-08-19T18:53:28.591Z,100349.97
2022-08-19T18:55:56.400Z,100348.13
2022-08-19T18:58:36.027Z,100342.37
2022-08-19T19:01:11.773Z,100343.47
2022-08-19T19:03:45.772Z,100328.22
2022-08-19T19:06:14.843Z,100335.25
2022-08-19T19:08:41.602Z,100333.62
2022-08-19T19:11:09.201Z,100307.22
2022-08-19T19:13:39.706Z,100327.88
2022-08-19T19:16:10.004Z,100320.81
2022-08-19T19:18:37.388Z,100303.94
2022-08-19T19:21:04.525Z,100301.28
2022-08-19T19:23:31.213Z,100301.28
2022-08-19T19:25:58.407Z,100290.97
2022-08-19T19:28:29.058Z,100290.41
2022-08-19T19:31:00.488Z,100284.41
2022-08-19T19:33:28.255Z,100279.75
2022-08-19T19:35:55.093Z,100287.59
2022-08-19T19:38:21.858Z,100272.59
2022-08-19T19:40:49.057Z,100270.38
2022-08-19T19:43:17.185Z,100280.47
2022-08-19T19:45:44.849Z,100281.56
2022-08-19T19:48:14.879Z,100279.91
2022-08-19T19:50:42.232Z,100290.47
2022-08-19T19:53:09.155Z,100274.25
2022-08-19T19:55:36.585Z,100276.94
2022-08-19T19:58:06.885Z,100278.00
2022-08-19T20:00:34.108Z,100270.09
2022-08-19T20:03:01.603Z,100287.22
2022-08-19T20:05:28.380Z,100278.84
2022-08-19T20:08:14.889Z,100291.53
2022-08-19T20:10:43.770Z,100289.34
2022-08-19T20:13:11.830Z,100290.66
2022-08-19T20:15:42.331Z,100275.09
2022-08-19T20:18:11.185Z,100274.28
2022-08-19T20:20:38.136Z,100269.38
2022-08-19T20:23:05.251Z,100259.06
2022-08-19T20:25:32.573Z,100279.72
2022-08-19T20:28:01.173Z,100273.97
2022-08-19T20:30:28.215Z,100272.34
2022-08-19T20:32:58.862Z,100278.56
2022-08-19T20:35:26.428Z,100258.97
2022-08-19T20:37:58.101Z,100272.09
2022-08-19T20:40:29.104Z,100277.25
2022-08-19T20:42:56.719Z,100282.06
2022-08-19T20:45:33.646Z,100275.28
2022-08-19T20:48:03.377Z,100279.72
2022-08-19T20:50:32.249Z,100263.31
2022-08-19T20:52:59.214Z,100286.44
2022-08-19T20:55:27.408Z,100277.00
2022-08-19T20:57:54.821Z,100277.25
2022-08-19T21:00:21.748Z,100275.84
2022-08-19T21:02:48.857Z,100259.72
2022-08-19T21:05:15.652Z,100273.81
2022-08-19T21:07:42.620Z,100269.97
2022-08-19T21:10:09.856Z,100253.34
2022-08-19T21:12:36.530Z,100261.78
2022-08-19T21:15:04.988Z,100247.63
2022-08-19T21:17:32.017Z,100247.53
2022-08-19T21:19:58.907Z,100267.03
2022-08-19T21:22:25.630Z,100250.66
2022-08-19T21:24:52.827Z,100239.94
2022-08-19T21:27:19.567Z,100254.88
2022-08-19T21:29:46.238Z,100245.19
2022-08-19T21:32:14.191Z,100245.44
2022-08-19T21:34:42.786Z,100238.41
2022-08-19T21:37:24.725Z,100260.28
2022-08-19T21:39:53.650Z,100254.81
2022-08-19T21:42:24.102Z,100258.19
2022-08-19T21:44:50.920Z,100246.25
2022-08-19T21:47:17.712Z,100249.69
2022-08-19T21:49:44.661Z,100257.81
2022-08-19T21:52:11.549Z,100254.66
2022-08-19T21:54:38.873Z,100256.19
2022-08-19T21:57:10.139Z,100244.75
2022-08-19T21:59:36.941Z,100256.59
2022-08-19T22:02:19.206Z,100246.28
2022-08-19T22:04:48.201Z,100239.63
2022-08-19T22:07:15.626Z,100247.00
2022-08-19T22:09:44.239Z,100239.28
2022-08-19T22:12:23.371Z,100249.59
2022-08-19T22:14:51.742Z,100251.47
2022-08-19T22:17:19.959Z,100247.03
2022-08-19T22:19:47.128Z,100254.56
2022-08-19T22:22:20.272Z,100248.69
2022-08-19T22:24:47.442Z,100258.47
2022-08-19T22:27:14.098Z,100262.78
2022-08-19T22:29:40.787Z,100262.19
2022-08-19T22:32:26.557Z,100259.72
2022-08-19T22:34:57.489Z,100258.31
2022-08-19T22:37:25.371Z,100258.00
2022-08-19T22:39:52.189Z,100265.38
2022-08-19T22:42:20.493Z,100262.06
2022-08-19T22:44:48.591Z,100273.09
2022-08-19T22:47:15.652Z,100248.97
2022-08-19T22:49:42.367Z,100252.81
2022-08-19T22:52:17.536Z,100238.19
2022-08-19T22:54:50.332Z,100256.97
2022-08-19T22:57:21.684Z,100270.56
2022-08-19T22:59:50.690Z,100271.03
2022-08-19T23:02:27.900Z,100271.50
2022-08-19T23:04:54.815Z,100273.63
2022-08-19T23:07:23.572Z,100268.69
2022-08-19T23:09:51.121Z,100275.72
2022-08-19T23:12:30.751Z,100273.03
2022-08-19T23:15:12.260Z,100264.84
2022-08-19T23:17:40.642Z,100272.47
2022-08-19T23:20:10.265Z,100267.41
2022-08-19T23:22:39.511Z,100261.78
2022-08-19T23:25:09.210Z,100277.63
2022-08-19T23:27:55.028Z,100271.28
2022-08-19T23:30:27.899Z,100274.06
2022-08-19T23:33:15.109Z,100277.00
2022-08-19T23:35:41.843Z,100273.03
2022-08-19T23:38:10.116Z,100274.22
2022-08-19T23:40:38.481Z,100277.37
2022-08-19T23:43:08.184Z,100281.13
2022-08-19T23:45:39.484Z,100269.16
2022-08-19T23:48:07.152Z,100275.50
2022-08-19T23:50:34.506Z,100262.12
2022-08-19T23:53:01.791Z,100284.44
2022-08-19T23:55:32.627Z,100275.50
2022-08-19T23:57:59.870Z,100276.34
